createdAt,value
2022-09-05T00:01:47.921Z,98313.70
2022-09-05T00:04:52.135Z,98314.15
2022-09-05T00:08:00.409Z,98314.80
2022-09-05T00:11:42.736Z,98322.17
2022-09-05T00:15:16.460Z,98326.85
2022-09-05T00:20:00.083Z,98324.30
2022-09-05T00:24:30.499Z,98323.20
2022-09-05T00:25:30.500Z,98322.86
2022-09-05T00:28:26.287Z,98320.25
2022-09-05T00:31:55.940Z,98316.38
2022-09-05T00:34:51.069Z,98314.02
2022-09-05T00:37:49.376Z,98313.80
2022-09-05T00:40:44.217Z,98316.70
2022-09-05T00:43:34.197Z,98319.98
2022-09-05T00:46:32.023Z,98325.63
2022-09-05T00:49:33.349Z,98327.44
2022-09-05T00:52:43.149Z,98332.23
2022-09-05T00:56:18.896Z,98332.23
2022-09-05T00:59:42.016Z,98330.56
2022-09-05T01:03:12.702Z,98332.61
2022-09-05T01:06:09.064Z,98329.61
2022-09-05T01:09:26.224Z,98325.94
2022-09-05T01:12:43.887Z,98324.92
2022-09-05T01:16:16.809Z,98320.45
2022-09-05T01:19:08.713Z,98320.52
2022-09-05T01:22:20.131Z,98318.34
2022-09-05T01:25:47.126Z,98319.89
2022-09-05T01:29:16.293Z,98318.41
2022-09-05T01:32:37.958Z,98327.85
2022-09-05T01:36:03.798Z,98329.00
2022-09-05T01:40:12.410Z,98326.52
2022-09-05T01:42:37.152Z,98323.06
2022-09-05T01:45:44.970Z,98323.92
2022-09-05T01:48:34.998Z,98320.33
2022-09-05T01:51:47.352Z,98317.74
2022-09-05T01:55:10.421Z,98318.34
2022-09-05T01:58:22.125Z,98315.61
2022-09-05T02:01:32.477Z,98313.95
2022-09-05T02:04:30.836Z,98309.08
2022-09-05T02:07:37.924Z,98307.01
2022-09-05T02:10:54.034Z,98303.45
2022-09-05T02:13:49.622Z,98308.58
2022-09-05T02:16:46.684Z,98310.42
2022-09-05T02:19:43.894Z,98310.12
2022-09-05T02:22:44.792Z,98310.56
2022-09-05T02:26:10.029Z,98312.64
2022-09-05T02:29:07.420Z,98308.73
2022-09-05T02:32:03.584Z,98309.51
2022-09-05T02:35:15.477Z,98309.58
2022-09-05T02:39:18.590Z,98308.98
2022-09-05T02:45:11.158Z,98307.09
2022-09-05T02:45:15.332Z,98308.23
2022-09-05T02:48:32.314Z,98307.74
2022-09-05T02:57:27.163Z,98304.98
2022-09-05T02:57:32.669Z,98308.47
2022-09-05T02:58:07.073Z,98311.41
2022-09-05T03:01:10.266Z,98310.24
2022-09-05T03:04:09.776Z,98311.52
2022-09-05T03:07:20.468Z,98317.41
2022-09-05T03:10:14.731Z,98313.66
2022-09-05T03:13:12.257Z,98315.45
2022-09-05T03:16:28.566Z,98314.95
2022-09-05T03:19:51.537Z,98319.30
2022-09-05T03:23:12.853Z,98322.48
2022-09-05T03:26:08.914Z,98324.04
2022-09-05T03:29:13.330Z,98331.14
2022-09-05T03:32:27.376Z,98330.89
2022-09-05T03:35:43.843Z,98334.20
2022-09-05T03:38:50.333Z,98338.96
2022-09-05T03:42:05.897Z,98340.22
2022-09-05T03:45:36.961Z,98342.42
2022-09-05T03:48:35.376Z,98338.41
2022-09-05T03:57:06.281Z,98340.20
2022-09-05T03:57:10.815Z,98343.89
2022-09-05T03:58:31.817Z,98342.48
2022-09-05T04:07:12.010Z,98342.13
2022-09-05T04:08:13.865Z,98342.42
2022-09-05T04:08:27.806Z,98342.61
2022-09-05T04:11:07.483Z,98347.70
2022-09-05T04:14:02.022Z,98346.15
2022-09-05T04:16:50.505Z,98347.60
2022-09-05T04:19:43.505Z,98345.01
2022-09-05T04:23:01.084Z,98344.46
2022-09-05T04:26:12.134Z,98343.98
2022-09-05T04:29:15.122Z,98349.22
2022-09-05T04:32:32.910Z,98353.23
2022-09-05T04:35:31.011Z,98357.15
2022-09-05T04:38:19.477Z,98363.73
2022-09-05T04:41:39.291Z,98363.84
2022-09-05T04:44:42.147Z,98370.91
2022-09-05T04:47:38.350Z,98376.20
2022-09-05T04:50:26.021Z,98381.15
2022-09-05T04:54:02.219Z,98378.29
2022-09-05T04:56:53.196Z,98380.86
2022-09-05T05:02:59.671Z,98389.48
2022-09-05T05:06:13.326Z,98392.10
2022-09-05T05:06:38.094Z,98397.29
2022-09-05T05:09:34.021Z,98399.11
2022-09-05T05:17:59.128Z,98397.56
2022-09-05T05:18:15.637Z,98398.21
2022-09-05T05:19:42.003Z,98399.94
2022-09-05T05:22:29.446Z,98399.11
2022-09-05T05:25:15.242Z,98400.95
2022-09-05T05:28:15.540Z,98406.00
2022-09-05T05:31:31.714Z,98408.05
2022-09-05T05:34:23.851Z,98408.66
2022-09-05T05:37:53.446Z,98404.56
2022-09-05T05:40:51.165Z,98397.61
2022-09-05T05:43:46.269Z,98397.24
2022-09-05T05:46:38.057Z,98390.88
2022-09-05T05:49:52.739Z,98392.16
2022-09-05T05:52:41.134Z,98396.34
2022-09-05T05:55:53.099Z,98394.36
2022-09-05T05:58:54.690Z,98396.41
2022-09-05T06:01:56.003Z,98399.92
2022-09-05T06:05:03.781Z,98402.97
2022-09-05T06:10:52.564Z,98403.05
2022-09-05T06:15:02.641Z,98404.66
2022-09-05T06:15:25.392Z,98400.08
2022-09-05T06:18:24.406Z,98397.85
2022-09-05T06:22:06.057Z,98395.21
2022-09-05T06:25:17.454Z,98402.63
2022-09-05T06:28:19.308Z,98402.40
2022-09-05T06:31:30.615Z,98399.86
2022-09-05T06:34:57.056Z,98393.31
2022-09-05T06:38:16.448Z,98395.20
2022-09-05T06:41:40.169Z,98392.49
2022-09-05T06:44:38.032Z,98388.95
2022-09-05T06:47:34.138Z,98383.13
2022-09-05T06:50:27.273Z,98388.55
2022-09-05T06:53:35.686Z,98397.64
2022-09-05T06:56:42.719Z,98397.24
2022-09-05T07:00:17.644Z,98399.09
2022-09-05T07:03:20.111Z,98401.77
2022-09-05T07:07:00.910Z,98400.52
2022-09-05T07:10:03.843Z,98402.41
2022-09-05T07:13:25.261Z,98402.83
2022-09-05T07:16:47.799Z,98404.01
2022-09-05T07:19:54.818Z,98403.27
2022-09-05T07:24:06.979Z,98403.89
2022-09-05T07:26:49.695Z,98404.85
2022-09-05T07:29:40.821Z,98403.66
2022-09-05T07:32:45.651Z,98403.55
2022-09-05T07:35:41.667Z,98401.42
2022-09-05T07:38:38.245Z,98398.91
2022-09-05T07:41:39.971Z,98405.59
2022-09-05T07:44:39.336Z,98408.89
2022-09-05T07:47:32.442Z,98409.20
2022-09-05T07:54:59.138Z,98411.30
2022-09-05T07:56:49.870Z,98409.85
2022-09-05T08:00:25.843Z,98400.48
2022-09-05T08:03:15.700Z,98398.03
2022-09-05T08:06:06.581Z,98400.34
2022-09-05T08:10:05.995Z,98398.54
2022-09-05T08:12:28.537Z,98394.96
2022-09-05T08:15:23.015Z,98383.73
2022-09-05T08:18:31.265Z,98380.37
2022-09-05T08:21:30.712Z,98381.06
2022-09-05T08:24:24.049Z,98384.43
2022-09-05T08:27:17.121Z,98383.79
2022-09-05T08:30:25.154Z,98383.17
2022-09-05T08:33:35.239Z,98383.62
2022-09-05T08:36:37.277Z,98380.83
2022-09-05T08:39:27.419Z,98376.70
2022-09-05T08:42:29.625Z,98377.96
2022-09-05T08:46:40.902Z,98376.91
2022-09-05T08:48:50.015Z,98378.33
2022-09-05T08:51:41.186Z,98375.73
2022-09-05T08:55:09.505Z,98372.80
2022-09-05T08:58:05.207Z,98373.77
2022-09-05T09:01:03.042Z,98374.27
2022-09-05T09:05:01.547Z,98372.58
2022-09-05T09:07:50.751Z,98368.09
2022-09-05T09:10:59.648Z,98366.53
2022-09-05T09:14:12.213Z,98367.80
2022-09-05T09:17:07.635Z,98368.29
2022-09-05T09:20:17.647Z,98371.83
2022-09-05T09:23:32.906Z,98367.77
2022-09-05T09:26:28.320Z,98367.46
2022-09-05T09:29:18.370Z,98367.48
2022-09-05T09:32:08.138Z,98370.17
2022-09-05T09:35:10.362Z,98367.79
2022-09-05T09:38:08.201Z,98366.16
2022-09-05T09:41:12.868Z,98369.63
2022-09-05T09:44:43.616Z,98369.77
2022-09-05T09:47:36.187Z,98374.45
2022-09-05T09:50:59.240Z,98374.10
2022-09-05T09:54:04.155Z,98367.81
2022-09-05T09:57:23.868Z,98361.66
2022-09-05T10:00:24.356Z,98365.66
2022-09-05T10:10:04.376Z,98361.88
2022-09-05T10:10:52.197Z,98356.59
2022-09-05T10:11:05.227Z,98354.77
2022-09-05T10:13:56.837Z,98352.27
2022-09-05T10:17:22.947Z,98348.00
2022-09-05T10:20:49.666Z,98343.39
2022-09-05T10:24:38.797Z,98335.15
2022-09-05T10:28:01.122Z,98332.42
2022-09-05T10:32:39.071Z,98326.17
2022-09-05T10:35:23.318Z,98324.67
2022-09-05T10:37:55.016Z,98321.58
2022-09-05T10:41:16.147Z,98312.96
2022-09-05T10:44:01.534Z,98310.80
2022-09-05T10:47:16.581Z,98312.52
2022-09-05T10:50:25.570Z,98315.09
2022-09-05T10:53:39.022Z,98319.21
2022-09-05T10:56:31.791Z,98318.05
2022-09-05T11:01:29.693Z,98319.98
2022-09-05T11:02:57.831Z,98316.33
2022-09-05T11:06:09.251Z,98317.25
2022-09-05T11:08:59.009Z,98317.18
2022-09-05T11:11:52.489Z,98321.80
2022-09-05T11:14:54.129Z,98322.77
2022-09-05T11:17:43.271Z,98317.33
2022-09-05T11:20:46.699Z,98316.61
2022-09-05T11:23:57.607Z,98315.80
2022-09-05T11:27:23.861Z,98309.29
2022-09-05T11:30:28.632Z,98304.38
2022-09-05T11:39:53.053Z,98299.27
2022-09-05T11:39:59.544Z,98300.17
2022-09-05T11:40:34.257Z,98296.77
2022-09-05T11:43:51.508Z,98292.43
2022-09-05T11:47:29.895Z,98292.99
2022-09-05T11:50:52.944Z,98291.12
2022-09-05T11:53:46.830Z,98289.02
2022-09-05T11:57:34.438Z,98284.71
2022-09-05T12:00:40.667Z,98275.55
2022-09-05T12:03:58.130Z,98272.09
2022-09-05T12:07:31.587Z,98263.52
2022-09-05T12:10:46.725Z,98261.48
2022-09-05T12:13:52.453Z,98265.84
2022-09-05T12:17:10.058Z,98260.88
2022-09-05T12:20:16.791Z,98261.23
2022-09-05T12:23:49.335Z,98260.91
2022-09-05T12:27:40.467Z,98260.95
2022-09-05T12:29:50.470Z,98262.06
2022-09-05T12:33:58.050Z,98256.36
2022-09-05T12:40:30.257Z,98250.57
2022-09-05T12:41:36.422Z,98245.90
2022-09-05T12:43:53.095Z,98234.39
2022-09-05T12:46:26.387Z,98229.31
2022-09-05T12:49:35.018Z,98226.09
2022-09-05T12:52:38.339Z,98222.24
2022-09-05T12:55:30.976Z,98218.61
2022-09-05T13:03:02.202Z,98217.23
2022-09-05T13:03:02.327Z,98213.89
2022-09-05T13:05:02.821Z,98203.82
2022-09-05T13:07:57.089Z,98204.30
2022-09-05T13:14:46.108Z,98206.67
2022-09-05T13:14:54.124Z,98208.48
2022-09-05T13:17:31.531Z,98208.91
2022-09-05T13:20:35.613Z,98204.46
2022-09-05T13:23:42.024Z,98206.52
2022-09-05T13:26:43.340Z,98203.39
2022-09-05T13:31:13.770Z,98202.77
2022-09-05T13:37:55.595Z,98204.44
2022-09-05T13:38:16.419Z,98204.44
2022-09-05T13:39:44.301Z,98203.27
2022-09-05T13:42:46.586Z,98207.17
2022-09-05T13:45:48.183Z,98205.32
2022-09-05T13:52:05.325Z,98212.45
2022-09-05T13:55:29.827Z,98211.27
2022-09-05T13:58:54.426Z,98208.55
2022-09-05T14:01:44.212Z,98211.39
2022-09-05T14:05:19.587Z,98217.86
2022-09-05T14:08:18.145Z,98213.96
2022-09-05T14:11:18.535Z,98215.90
2022-09-05T14:15:08.279Z,98218.19
2022-09-05T14:18:03.142Z,98214.27
2022-09-05T14:21:17.245Z,98220.70
2022-09-05T14:24:14.860Z,98217.75
2022-09-05T14:27:00.656Z,98218.05
2022-09-05T14:29:41.857Z,98213.45
2022-09-05T14:37:40.565Z,98210.96
2022-09-05T14:37:46.008Z,98216.43
2022-09-05T14:38:19.814Z,98220.06
2022-09-05T14:41:13.432Z,98219.11
2022-09-05T14:44:17.534Z,98218.55
2022-09-05T14:47:02.462Z,98212.24
2022-09-05T14:49:44.493Z,98215.64
2022-09-05T14:52:29.079Z,98218.67
2022-09-05T15:02:46.050Z,98213.52
2022-09-05T15:02:47.947Z,98218.86
2022-09-05T15:06:39.320Z,98212.44
2022-09-05T15:12:12.628Z,98210.30
2022-09-05T15:12:25.844Z,98212.86
2022-09-05T15:15:00.795Z,98213.88
2022-09-05T15:17:31.082Z,98217.01
2022-09-05T15:20:08.414Z,98216.91
2022-09-05T15:22:41.981Z,98215.02
2022-09-05T15:25:17.772Z,98216.35
2022-09-05T15:27:47.407Z,98213.54
2022-09-05T15:30:35.224Z,98212.65
2022-09-05T15:33:25.374Z,98212.14
2022-09-05T15:35:55.708Z,98214.39
2022-09-05T15:38:55.664Z,98214.00
2022-09-05T15:41:25.062Z,98217.88
2022-09-05T15:44:10.114Z,98219.44
2022-09-05T15:46:46.464Z,98220.17
2022-09-05T15:49:32.288Z,98219.39
2022-09-05T15:52:05.278Z,98220.34
2022-09-05T15:54:40.778Z,98215.87
2022-09-05T15:57:14.488Z,98211.00
2022-09-05T15:59:51.995Z,98213.11
2022-09-05T16:02:28.508Z,98217.29
2022-09-05T16:10:34.880Z,98216.20
2022-09-05T16:10:39.977Z,98213.66
2022-09-05T16:14:37.644Z,98216.19
2022-09-05T16:23:11.452Z,98216.74
2022-09-05T16:23:28.261Z,98215.53
2022-09-05T16:23:40.466Z,98211.75
2022-09-05T16:26:24.972Z,98213.06
2022-09-05T16:29:00.596Z,98215.05
2022-09-05T16:32:02.400Z,98213.51
2022-09-05T16:35:09.482Z,98212.65
2022-09-05T16:37:42.291Z,98212.54
2022-09-05T16:40:34.936Z,98211.48
2022-09-05T16:43:07.150Z,98207.89
2022-09-05T16:46:06.552Z,98211.55
2022-09-05T16:48:37.547Z,98213.16
2022-09-05T16:51:35.330Z,98214.41
2022-09-05T16:54:32.337Z,98216.10
2022-09-05T16:57:09.145Z,98215.23
2022-09-05T16:59:41.339Z,98214.29
2022-09-05T17:02:31.224Z,98218.72
2022-09-05T17:05:08.345Z,98221.80
2022-09-05T17:07:48.480Z,98227.10
2022-09-05T17:10:25.828Z,98226.04
2022-09-05T17:12:55.341Z,98225.09
2022-09-05T17:15:35.897Z,98223.84
2022-09-05T17:18:19.519Z,98225.92
2022-09-05T17:20:56.929Z,98226.23
2022-09-05T17:29:21.396Z,98222.90
2022-09-05T17:29:28.158Z,98226.23
2022-09-05T17:31:23.784Z,98229.39
2022-09-05T17:32:39.139Z,98227.52
2022-09-05T17:35:21.944Z,98227.98
2022-09-05T17:38:11.650Z,98233.44
2022-09-05T17:40:50.522Z,98240.19
2022-09-05T17:43:34.079Z,98244.45
2022-09-05T17:46:22.994Z,98251.55
2022-09-05T17:49:18.609Z,98256.84
2022-09-05T17:52:02.344Z,98260.02
2022-09-05T17:54:33.532Z,98263.67
2022-09-05T17:57:28.929Z,98261.41
2022-09-05T18:00:05.424Z,98262.70
2022-09-05T18:02:54.679Z,98270.09
2022-09-05T18:05:58.373Z,98271.64
2022-09-05T18:08:45.735Z,98273.02
2022-09-05T18:11:25.659Z,98271.83
2022-09-05T18:14:01.600Z,98274.69
2022-09-05T18:16:48.295Z,98275.11
2022-09-05T18:19:57.717Z,98272.45
2022-09-05T18:22:36.972Z,98277.23
2022-09-05T18:25:30.756Z,98278.27
2022-09-05T18:28:28.640Z,98281.08
2022-09-05T18:31:41.497Z,98279.73
2022-09-05T18:34:13.884Z,98277.85
2022-09-05T18:36:43.193Z,98271.50
2022-09-05T18:39:26.318Z,98270.81
2022-09-05T18:42:34.507Z,98270.52
2022-09-05T18:45:03.312Z,98266.23
2022-09-05T18:47:53.133Z,98264.65
2022-09-05T18:50:32.344Z,98263.31
2022-09-05T18:53:05.683Z,98261.88
2022-09-05T18:56:20.768Z,98258.48
2022-09-05T18:59:09.590Z,98257.02
2022-09-05T19:02:04.627Z,98263.22
2022-09-05T19:04:44.932Z,98267.99
2022-09-05T19:07:22.511Z,98265.13
2022-09-05T19:10:34.917Z,98261.85
2022-09-05T19:13:17.785Z,98263.02
2022-09-05T19:16:18.256Z,98265.60
2022-09-05T19:19:31.442Z,98268.76
2022-09-05T19:22:52.592Z,98267.16
2022-09-05T19:24:50.357Z,98269.91
2022-09-05T19:29:50.215Z,98270.69
2022-09-05T19:37:09.789Z,98272.02
2022-09-05T19:37:09.979Z,98273.52
2022-09-05T19:37:15.105Z,98270.10
2022-09-05T19:42:52.641Z,98270.47
2022-09-05T19:47:29.128Z,98268.21
2022-09-05T19:47:37.190Z,98270.14
2022-09-05T19:50:27.377Z,98276.85
2022-09-05T19:53:06.804Z,98275.25
2022-09-05T19:55:38.839Z,98276.08
2022-09-05T19:58:20.076Z,98276.89
2022-09-05T20:01:13.532Z,98279.66
2022-09-05T20:03:43.862Z,98285.34
2022-09-05T20:06:31.129Z,98287.89
2022-09-05T20:09:18.864Z,98290.96
2022-09-05T20:11:57.041Z,98290.56
2022-09-05T20:14:29.081Z,98292.27
2022-09-05T20:17:18.924Z,98290.55
2022-09-05T20:19:47.698Z,98292.85
2022-09-05T20:22:48.234Z,98293.91
2022-09-05T20:25:36.053Z,98293.34
2022-09-05T20:28:10.260Z,98293.25
2022-09-05T20:30:44.960Z,98292.77
2022-09-05T20:33:40.225Z,98294.92
2022-09-05T20:41:13.995Z,98293.39
2022-09-05T20:43:35.355Z,98291.31
2022-09-05T20:43:36.698Z,98292.95
2022-09-05T20:44:51.772Z,98292.48
2022-09-05T20:54:04.368Z,98288.65
2022-09-05T20:54:23.017Z,98289.96
2022-09-05T20:54:25.555Z,98293.27
2022-09-05T20:56:22.704Z,98290.38
2022-09-05T20:58:51.785Z,98287.16
2022-09-05T21:01:22.986Z,98287.14
2022-09-05T21:03:57.830Z,98289.30
2022-09-05T21:06:33.993Z,98284.14
2022-09-05T21:09:24.325Z,98290.20
2022-09-05T21:11:59.083Z,98287.91
2022-09-05T21:14:29.138Z,98283.98
2022-09-05T21:17:01.572Z,98280.91
2022-09-05T21:19:53.450Z,98283.13
2022-09-05T21:22:39.381Z,98282.70
2022-09-05T21:25:42.201Z,98286.50
2022-09-05T21:28:37.324Z,98287.13
2022-09-05T21:31:12.214Z,98289.20
2022-09-05T21:33:45.413Z,98289.65
2022-09-05T21:36:15.620Z,98287.75
2022-09-05T21:38:44.051Z,98289.21
2022-09-05T21:41:16.421Z,98283.27
2022-09-05T21:47:37.648Z,98281.22
2022-09-05T21:47:39.617Z,98279.73
2022-09-05T21:49:22.716Z,98276.44
2022-09-05T21:51:51.118Z,98277.42
2022-09-05T21:59:14.898Z,98273.95
2022-09-05T21:59:30.621Z,98273.99
2022-09-05T22:00:20.773Z,98272.95
2022-09-05T22:02:49.629Z,98273.13
2022-09-05T22:05:17.800Z,98275.57
2022-09-05T22:07:46.264Z,98277.00
2022-09-05T22:10:15.017Z,98277.84
2022-09-05T22:12:42.988Z,98279.41
2022-09-05T22:15:27.328Z,98279.19
2022-09-05T22:18:16.875Z,98284.19
2022-09-05T22:21:02.950Z,98283.70
2022-09-05T22:23:44.449Z,98285.38
2022-09-05T22:26:14.571Z,98287.83
2022-09-05T22:28:48.946Z,98287.86
2022-09-05T22:31:19.174Z,98291.73
2022-09-05T22:33:50.826Z,98292.92
2022-09-05T22:36:19.436Z,98289.60
2022-09-05T22:38:47.779Z,98287.14
2022-09-05T22:41:16.082Z,98286.46
2022-09-05T22:43:46.430Z,98285.98
2022-09-05T22:46:14.667Z,98285.55
2022-09-05T22:48:42.662Z,98289.92
2022-09-05T22:51:10.846Z,98290.00
2022-09-05T22:53:39.010Z,98289.65
2022-09-05T22:56:08.736Z,98291.92
2022-09-05T22:58:43.037Z,98291.41
2022-09-05T23:01:11.803Z,98287.02
2022-09-05T23:03:39.748Z,98284.65
2022-09-05T23:06:09.807Z,98285.91
2022-09-05T23:08:37.850Z,98283.40
2022-09-05T23:11:14.180Z,98283.45
2022-09-05T23:13:42.548Z,98278.73
2022-09-05T23:16:11.148Z,98274.34
2022-09-05T23:18:40.125Z,98275.45
2022-09-05T23:21:11.776Z,98270.95
2022-09-05T23:23:41.354Z,98272.55
2022-09-05T23:26:12.269Z,98273.36
2022-09-05T23:28:43.282Z,98270.15
2022-09-05T23:31:12.816Z,98267.65
2022-09-05T23:33:45.116Z,98264.66
2022-09-05T23:36:14.032Z,98262.02
2022-09-05T23:38:42.899Z,98259.52
2022-09-05T23:41:13.654Z,98262.52
2022-09-05T23:43:42.696Z,98263.36
2022-09-05T23:46:10.729Z,98263.46
2022-09-05T23:48:38.622Z,98265.62
2022-09-05T23:51:12.384Z,98263.04
2022-09-05T23:53:41.163Z,98260.41
2022-09-05T23:56:11.047Z,98261.45
2022-09-05T23:58:39.093Z,98265.09
